sensor_id;sensor_type;location;lat;lon;timestamp;pressure;altitude;pressure_sealevel;temperature;humidity
70011;BME280;59543;37.950;-122.338;2023-02-19T00:01:28;101455.41;;;16.29;42.46
70011;BME280;59543;37.950;-122.338;2023-02-19T00:03:56;101441.31;;;16.33;42.41
70011;BME280;59543;37.950;-122.338;2023-02-19T00:06:23;101441.66;;;16.22;41.75
70011;BME280;59543;37.950;-122.338;2023-02-19T00:08:50;101444.03;;;16.17;41.34
70011;BME280;59543;37.950;-122.338;2023-02-19T00:11:17;101440.47;;;16.25;41.51
70011;BME280;59543;37.950;-122.338;2023-02-19T00:13:44;101431.63;;;16.14;41.77
70011;BME280;59543;37.950;-122.338;2023-02-19T00:16:29;101430.63;;;16.23;41.15
70011;BME280;59543;37.950;-122.338;2023-02-19T00:18:56;101428.44;;;16.19;41.04
70011;BME280;59543;37.950;-122.338;2023-02-19T00:21:22;101431.63;;;16.14;40.32
70011;BME280;59543;37.950;-122.338;2023-02-19T00:23:50;101441.81;;;16.20;40.57
70011;BME280;59543;37.950;-122.338;2023-02-19T00:26:16;101445.38;;;16.05;41.33
70011;BME280;59543;37.950;-122.338;2023-02-19T00:28:42;101449.28;;;16.27;39.77
70011;BME280;59543;37.950;-122.338;2023-02-19T00:31:09;101457.41;;;16.10;40.25
70011;BME280;59543;37.950;-122.338;2023-02-19T00:33:37;101468.94;;;16.12;40.99
70011;BME280;59543;37.950;-122.338;2023-02-19T00:36:04;101468.28;;;16.10;40.91
70011;BME280;59543;37.950;-122.338;2023-02-19T00:38:30;101468.56;;;15.83;41.56
70011;BME280;59543;37.950;-122.338;2023-02-19T00:40:59;101475.03;;;15.90;41.80
70011;BME280;59543;37.950;-122.338;2023-02-19T00:43:25;101484.00;;;15.90;41.64
70011;BME280;59543;37.950;-122.338;2023-02-19T00:45:51;101476.00;;;15.81;41.50
70011;BME280;59543;37.950;-122.338;2023-02-19T00:48:17;101496.19;;;15.44;42.07
70011;BME280;59543;37.950;-122.338;2023-02-19T00:50:43;101515.81;;;15.38;41.92
70011;BME280;59543;37.950;-122.338;2023-02-19T00:53:09;101514.47;;;15.07;42.92
70011;BME280;59543;37.950;-122.338;2023-02-19T00:55:35;101523.00;;;14.95;43.89
70011;BME280;59543;37.950;-122.338;2023-02-19T00:58:01;101524.44;;;15.07;43.70
70011;BME280;59543;37.950;-122.338;2023-02-19T01:00:27;101522.22;;;15.02;43.65
70011;BME280;59543;37.950;-122.338;2023-02-19T01:02:53;101528.06;;;14.90;44.18
70011;BME280;59543;37.950;-122.338;2023-02-19T01:05:18;101528.44;;;14.77;44.67
70011;BME280;59543;37.950;-122.338;2023-02-19T01:07:44;101532.13;;;14.94;44.77
70011;BME280;59543;37.950;-122.338;2023-02-19T01:10:10;101523.13;;;14.67;45.87
70011;BME280;59543;37.950;-122.338;2023-02-19T01:12:36;101531.53;;;14.82;46.27
70011;BME280;59543;37.950;-122.338;2023-02-19T01:15:02;101527.31;;;14.61;47.00
70011;BME280;59543;37.950;-122.338;2023-02-19T01:17:28;101530.28;;;14.40;48.14
70011;BME280;59543;37.950;-122.338;2023-02-19T01:19:54;101538.28;;;14.24;49.13
70011;BME280;59543;37.950;-122.338;2023-02-19T01:22:20;101538.81;;;14.28;49.42
70011;BME280;59543;37.950;-122.338;2023-02-19T01:24:46;101529.97;;;14.26;49.55
70011;BME280;59543;37.950;-122.338;2023-02-19T01:27:12;101528.81;;;14.28;49.65
70011;BME280;59543;37.950;-122.338;2023-02-19T01:29:37;101531.53;;;14.28;49.84
70011;BME280;59543;37.950;-122.338;2023-02-19T01:32:03;101542.84;;;14.24;49.83
70011;BME280;59543;37.950;-122.338;2023-02-19T01:34:29;101542.44;;;14.18;50.52
70011;BME280;59543;37.950;-122.338;2023-02-19T01:36:57;101540.66;;;14.09;51.10
70011;BME280;59543;37.950;-122.338;2023-02-19T01:39:23;101536.63;;;14.13;47.74
70011;BME280;59543;37.950;-122.338;2023-02-19T01:41:49;101538.78;;;14.10;48.26
70011;BME280;59543;37.950;-122.338;2023-02-19T01:46:43;101538.84;;;14.00;47.80
70011;BME280;59543;37.950;-122.338;2023-02-19T01:49:15;101541.47;;;13.92;46.61
70011;BME280;59543;37.950;-122.338;2023-02-19T01:51:45;101537.44;;;13.68;46.36
70011;BME280;59543;37.950;-122.338;2023-02-19T01:54:12;101529.34;;;13.96;43.02
70011;BME280;59543;37.950;-122.338;2023-02-19T01:56:41;101536.13;;;13.82;43.50
70011;BME280;59543;37.950;-122.338;2023-02-19T01:59:07;101533.59;;;13.71;42.65
70011;BME280;59543;37.950;-122.338;2023-02-19T02:01:34;101526.41;;;13.62;42.11
70011;BME280;59543;37.950;-122.338;2023-02-19T02:04:01;101529.88;;;13.44;41.64
70011;BME280;59543;37.950;-122.338;2023-02-19T02:06:33;101529.19;;;13.42;41.81
70011;BME280;59543;37.950;-122.338;2023-02-19T02:09:00;101524.94;;;13.40;42.34
70011;BME280;59543;37.950;-122.338;2023-02-19T02:11:49;101514.59;;;13.25;41.78
70011;BME280;59543;37.950;-122.338;2023-02-19T02:14:19;101499.13;;;13.18;41.63
70011;BME280;59543;37.950;-122.338;2023-02-19T02:17:03;101509.91;;;13.18;42.08
70011;BME280;59543;37.950;-122.338;2023-02-19T02:31:57;101508.31;;;12.58;44.49
70011;BME280;59543;37.950;-122.338;2023-02-19T02:34:25;101506.50;;;12.49;43.89
70011;BME280;59543;37.950;-122.338;2023-02-19T02:36:52;101503.06;;;12.38;44.30
70011;BME280;59543;37.950;-122.338;2023-02-19T02:39:21;101502.78;;;12.41;43.86
70011;BME280;59543;37.950;-122.338;2023-02-19T02:41:49;101504.22;;;12.35;43.92
70011;BME280;59543;37.950;-122.338;2023-02-19T02:44:38;101511.88;;;12.30;43.82
70011;BME280;59543;37.950;-122.338;2023-02-19T02:47:05;101514.72;;;12.19;43.52
70011;BME280;59543;37.950;-122.338;2023-02-19T02:49:31;101514.41;;;12.12;43.98
70011;BME280;59543;37.950;-122.338;2023-02-19T02:51:58;101527.47;;;12.07;43.91
70011;BME280;59543;37.950;-122.338;2023-02-19T02:54:46;101534.84;;;12.05;44.08
70011;BME280;59543;37.950;-122.338;2023-02-19T02:57:30;101528.16;;;12.09;44.02
70011;BME280;59543;37.950;-122.338;2023-02-19T02:59:56;101524.34;;;12.02;45.10
70011;BME280;59543;37.950;-122.338;2023-02-19T03:02:22;101529.16;;;11.98;44.57
70011;BME280;59543;37.950;-122.338;2023-02-19T03:07:59;101524.69;;;11.78;45.05
70011;BME280;59543;37.950;-122.338;2023-02-19T03:10:24;101527.25;;;11.79;44.95
70011;BME280;59543;37.950;-122.338;2023-02-19T03:12:51;101531.91;;;11.67;45.43
70011;BME280;59543;37.950;-122.338;2023-02-19T03:15:39;101541.78;;;11.57;46.33
70011;BME280;59543;37.950;-122.338;2023-02-19T03:18:25;101546.72;;;11.52;46.22
70011;BME280;59543;37.950;-122.338;2023-02-19T03:21:11;101537.47;;;11.45;46.22
70011;BME280;59543;37.950;-122.338;2023-02-19T03:23:38;101543.41;;;11.39;46.38
70011;BME280;59543;37.950;-122.338;2023-02-19T03:26:23;101532.88;;;11.36;46.93
70011;BME280;59543;37.950;-122.338;2023-02-19T03:28:51;101534.25;;;11.20;49.29
70011;BME280;59543;37.950;-122.338;2023-02-19T03:31:36;101533.06;;;11.13;48.56
70011;BME280;59543;37.950;-122.338;2023-02-19T03:34:04;101533.50;;;11.18;48.24
70011;BME280;59543;37.950;-122.338;2023-02-19T03:36:37;101539.03;;;11.17;47.69
70011;BME280;59543;37.950;-122.338;2023-02-19T03:39:06;101542.13;;;11.12;47.60
70011;BME280;59543;37.950;-122.338;2023-02-19T03:52:15;101580.78;;;10.69;48.60
70011;BME280;59543;37.950;-122.338;2023-02-19T03:54:49;101585.44;;;10.67;48.45
70011;BME280;59543;37.950;-122.338;2023-02-19T03:57:36;101577.88;;;10.61;48.77
70011;BME280;59543;37.950;-122.338;2023-02-19T04:05:20;101574.53;;;10.48;49.27
70011;BME280;59543;37.950;-122.338;2023-02-19T04:07:48;101577.72;;;10.42;49.00
70011;BME280;59543;37.950;-122.338;2023-02-19T04:10:15;101587.91;;;10.27;49.88
70011;BME280;59543;37.950;-122.338;2023-02-19T04:12:43;101593.38;;;10.25;51.11
70011;BME280;59543;37.950;-122.338;2023-02-19T04:15:11;101591.44;;;10.27;50.31
70011;BME280;59543;37.950;-122.338;2023-02-19T04:17:46;101591.44;;;10.16;50.90
70011;BME280;59543;37.950;-122.338;2023-02-19T04:20:15;101600.59;;;10.14;50.92
70011;BME280;59543;37.950;-122.338;2023-02-19T04:22:43;101607.63;;;10.05;51.20
70011;BME280;59543;37.950;-122.338;2023-02-19T04:25:09;101614.47;;;9.75;52.91
70011;BME280;59543;37.950;-122.338;2023-02-19T04:27:38;101611.28;;;9.81;52.38
70011;BME280;59543;37.950;-122.338;2023-02-19T04:30:05;101613.38;;;9.78;52.72
70011;BME280;59543;37.950;-122.338;2023-02-19T04:32:32;101620.22;;;9.82;53.23
70011;BME280;59543;37.950;-122.338;2023-02-19T04:34:58;101619.84;;;9.75;52.91
70011;BME280;59543;37.950;-122.338;2023-02-19T04:37:24;101626.91;;;9.76;53.06
70011;BME280;59543;37.950;-122.338;2023-02-19T04:39:49;101636.06;;;9.62;53.74
70011;BME280;59543;37.950;-122.338;2023-02-19T04:42:15;101643.97;;;9.42;54.45
70011;BME280;59543;37.950;-122.338;2023-02-19T04:44:41;101641.66;;;9.37;54.31
70011;BME280;59543;37.950;-122.338;2023-02-19T04:47:07;101636.28;;;9.37;54.14
70011;BME280;59543;37.950;-122.338;2023-02-19T04:49:33;101632.25;;;9.31;53.95
70011;BME280;59543;37.950;-122.338;2023-02-19T04:51:58;101631.97;;;9.23;54.24
70011;BME280;59543;37.950;-122.338;2023-02-19T04:54:24;101653.34;;;9.25;54.53
70011;BME280;59543;37.950;-122.338;2023-02-19T04:56:50;101653.78;;;9.07;55.29
70011;BME280;59543;37.950;-122.338;2023-02-19T04:59:16;101661.44;;;9.01;55.49
70011;BME280;59543;37.950;-122.338;2023-02-19T05:01:42;101664.41;;;9.09;54.73
70011;BME280;59543;37.950;-122.338;2023-02-19T05:04:08;101661.06;;;8.94;55.39
70011;BME280;59543;37.950;-122.338;2023-02-19T05:06:34;101669.66;;;8.86;55.89
70011;BME280;59543;37.950;-122.338;2023-02-19T05:08:59;101673.19;;;8.76;56.27
70011;BME280;59543;37.950;-122.338;2023-02-19T05:11:25;101667.13;;;8.85;56.77
70011;BME280;59543;37.950;-122.338;2023-02-19T05:13:51;101676.09;;;8.73;57.13
70011;BME280;59543;37.950;-122.338;2023-02-19T05:16:17;101673.81;;;8.79;56.90
70011;BME280;59543;37.950;-122.338;2023-02-19T05:18:43;101683.22;;;8.85;56.98
70011;BME280;59543;37.950;-122.338;2023-02-19T05:21:10;101684.22;;;8.71;57.20
70011;BME280;59543;37.950;-122.338;2023-02-19T05:23:36;101684.75;;;8.76;57.47
70011;BME280;59543;37.950;-122.338;2023-02-19T05:26:10;101683.84;;;8.64;57.46
70011;BME280;59543;37.950;-122.338;2023-02-19T05:28:36;101685.44;;;8.67;57.34
70011;BME280;59543;37.950;-122.338;2023-02-19T05:31:05;101694.78;;;8.61;57.35
70011;BME280;59543;37.950;-122.338;2023-02-19T05:33:32;101697.94;;;8.55;58.04
70011;BME280;59543;37.950;-122.338;2023-02-19T05:35:58;101700.00;;;8.39;58.41
70011;BME280;59543;37.950;-122.338;2023-02-19T05:38:24;101707.81;;;8.42;58.67
70011;BME280;59543;37.950;-122.338;2023-02-19T05:40:50;101709.00;;;8.38;58.61
70011;BME280;59543;37.950;-122.338;2023-02-19T05:43:16;101720.69;;;8.37;59.16
70011;BME280;59543;37.950;-122.338;2023-02-19T05:45:42;101731.63;;;8.21;59.28
70011;BME280;59543;37.950;-122.338;2023-02-19T05:48:09;101728.22;;;8.06;59.97
70011;BME280;59543;37.950;-122.338;2023-02-19T05:50:35;101727.28;;;8.07;59.84
70011;BME280;59543;37.950;-122.338;2023-02-19T05:53:01;101710.75;;;8.13;59.45
70011;BME280;59543;37.950;-122.338;2023-02-19T05:55:28;101719.09;;;8.09;59.75
70011;BME280;59543;37.950;-122.338;2023-02-19T05:57:54;101720.75;;;7.98;59.52
70011;BME280;59543;37.950;-122.338;2023-02-19T06:00:20;101716.00;;;8.02;59.59
70011;BME280;59543;37.950;-122.338;2023-02-19T06:02:46;101710.03;;;7.98;59.45
70011;BME280;59543;37.950;-122.338;2023-02-19T06:05:12;101720.75;;;7.98;59.37
70011;BME280;59543;37.950;-122.338;2023-02-19T06:07:38;101722.78;;;7.95;59.31
70011;BME280;59543;37.950;-122.338;2023-02-19T06:10:05;101723.22;;;7.89;59.00
70011;BME280;59543;37.950;-122.338;2023-02-19T06:12:31;101731.34;;;7.87;59.43
70011;BME280;59543;37.950;-122.338;2023-02-19T06:14:57;101725.47;;;7.95;58.54
70011;BME280;59543;37.950;-122.338;2023-02-19T06:17:22;101719.13;;;7.83;59.41
70011;BME280;59543;37.950;-122.338;2023-02-19T06:19:48;101721.28;;;7.78;59.44
70011;BME280;59543;37.950;-122.338;2023-02-19T06:22:14;101722.34;;;7.75;59.94
70011;BME280;59543;37.950;-122.338;2023-02-19T06:24:40;101726.41;;;7.68;59.95
70011;BME280;59543;37.950;-122.338;2023-02-19T06:27:06;101720.63;;;7.62;60.54
70011;BME280;59543;37.950;-122.338;2023-02-19T06:29:33;101722.44;;;7.48;61.08
70011;BME280;59543;37.950;-122.338;2023-02-19T06:31:59;101727.56;;;7.51;60.75
70011;BME280;59543;37.950;-122.338;2023-02-19T06:34:25;101726.06;;;7.47;61.00
70011;BME280;59543;37.950;-122.338;2023-02-19T06:36:51;101722.84;;;7.42;61.01
70011;BME280;59543;37.950;-122.338;2023-02-19T06:39:17;101717.50;;;7.42;60.67
70011;BME280;59543;37.950;-122.338;2023-02-19T06:41:42;101711.06;;;7.45;60.48
70011;BME280;59543;37.950;-122.338;2023-02-19T06:44:08;101720.50;;;7.50;59.97
70011;BME280;59543;37.950;-122.338;2023-02-19T06:46:34;101723.81;;;7.41;60.66
70011;BME280;59543;37.950;-122.338;2023-02-19T06:49:02;101715.66;;;7.30;60.96
70011;BME280;59543;37.950;-122.338;2023-02-19T06:51:28;101720.44;;;7.25;61.42
70011;BME280;59543;37.950;-122.338;2023-02-19T06:53:54;101712.22;;;7.28;61.26
70011;BME280;59543;37.950;-122.338;2023-02-19T06:58:56;101719.16;;;7.18;61.96
70011;BME280;59543;37.950;-122.338;2023-02-19T07:01:24;101718.09;;;7.20;62.00
70011;BME280;59543;37.950;-122.338;2023-02-19T07:03:50;101720.22;;;7.15;62.26
70011;BME280;59543;37.950;-122.338;2023-02-19T07:06:17;101715.13;;;6.98;62.98
70011;BME280;59543;37.950;-122.338;2023-02-19T07:08:43;101714.03;;;6.87;63.54
70011;BME280;59543;37.950;-122.338;2023-02-19T07:11:09;101711.81;;;6.94;63.45
70011;BME280;59543;37.950;-122.338;2023-02-19T07:13:35;101718.72;;;6.84;63.76
70011;BME280;59543;37.950;-122.338;2023-02-19T07:16:02;101716.25;;;6.81;63.84
70011;BME280;59543;37.950;-122.338;2023-02-19T07:18:28;101716.34;;;6.79;64.02
70011;BME280;59543;37.950;-122.338;2023-02-19T07:20:54;101715.44;;;6.66;64.08
70011;BME280;59543;37.950;-122.338;2023-02-19T07:23:26;101713.44;;;6.70;64.07
70011;BME280;59543;37.950;-122.338;2023-02-19T07:25:52;101715.81;;;6.74;64.18
70011;BME280;59543;37.950;-122.338;2023-02-19T07:28:17;101713.44;;;6.70;64.00
70011;BME280;59543;37.950;-122.338;2023-02-19T07:30:43;101718.53;;;6.60;64.46
70011;BME280;59543;37.950;-122.338;2023-02-19T07:33:09;101718.41;;;6.61;64.04
70011;BME280;59543;37.950;-122.338;2023-02-19T07:35:35;101705.16;;;6.60;63.96
70011;BME280;59543;37.950;-122.338;2023-02-19T07:38:01;101691.84;;;6.73;63.78
70011;BME280;59543;37.950;-122.338;2023-02-19T07:40:26;101690.16;;;6.57;64.19
70011;BME280;59543;37.950;-122.338;2023-02-19T07:42:52;101692.94;;;6.56;64.30
70011;BME280;59543;37.950;-122.338;2023-02-19T07:45:18;101688.25;;;6.59;64.35
70011;BME280;59543;37.950;-122.338;2023-02-19T07:47:44;101682.75;;;6.48;64.47
70011;BME280;59543;37.950;-122.338;2023-02-19T07:50:10;101681.25;;;6.44;64.97
70011;BME280;59543;37.950;-122.338;2023-02-19T07:52:36;101680.16;;;6.47;65.11
70011;BME280;59543;37.950;-122.338;2023-02-19T07:55:01;101672.53;;;6.40;64.89
70011;BME280;59543;37.950;-122.338;2023-02-19T07:57:27;101682.13;;;6.30;65.27
70011;BME280;59543;37.950;-122.338;2023-02-19T07:59:55;101698.44;;;6.26;65.38
70011;BME280;59543;37.950;-122.338;2023-02-19T08:02:21;101714.28;;;6.29;65.30
70011;BME280;59543;37.950;-122.338;2023-02-19T08:05:05;101734.97;;;6.25;65.34
70011;BME280;59543;37.950;-122.338;2023-02-19T08:07:34;101732.41;;;6.38;64.49
70011;BME280;59543;37.950;-122.338;2023-02-19T08:10:01;101722.84;;;6.34;64.42
70011;BME280;59543;37.950;-122.338;2023-02-19T08:12:55;101710.03;;;6.53;64.83
70011;BME280;59543;37.950;-122.338;2023-02-19T08:15:39;101701.69;;;6.72;65.78
70011;BME280;59543;37.950;-122.338;2023-02-19T08:18:06;101697.63;;;6.79;66.11
70011;BME280;59543;37.950;-122.338;2023-02-19T08:20:32;101688.59;;;6.95;64.04
70011;BME280;59543;37.950;-122.338;2023-02-19T08:22:57;101685.41;;;7.02;62.72
70011;BME280;59543;37.950;-122.338;2023-02-19T08:25:23;101689.91;;;7.02;62.46
70011;BME280;59543;37.950;-122.338;2023-02-19T08:27:50;101685.19;;;6.93;62.93
70011;BME280;59543;37.950;-122.338;2023-02-19T08:30:16;101676.59;;;6.87;63.76
70011;BME280;59543;37.950;-122.338;2023-02-19T08:32:42;101681.72;;;6.91;64.67
70011;BME280;59543;37.950;-122.338;2023-02-19T08:35:08;101693.03;;;7.08;65.44
70011;BME280;59543;37.950;-122.338;2023-02-19T08:37:33;101694.00;;;7.07;66.46
70011;BME280;59543;37.950;-122.338;2023-02-19T08:39:59;101704.38;;;7.25;65.68
70011;BME280;59543;37.950;-122.338;2023-02-19T08:42:26;101703.47;;;7.39;62.05
70011;BME280;59543;37.950;-122.338;2023-02-19T08:44:52;101721.41;;;7.24;62.02
70011;BME280;59543;37.950;-122.338;2023-02-19T08:47:18;101734.03;;;7.22;63.36
70011;BME280;59543;37.950;-122.338;2023-02-19T08:49:44;101738.31;;;7.12;65.19
70011;BME280;59543;37.950;-122.338;2023-02-19T08:52:10;101733.81;;;7.25;65.43
70011;BME280;59543;37.950;-122.338;2023-02-19T08:54:36;101734.78;;;7.11;65.63
70011;BME280;59543;37.950;-122.338;2023-02-19T08:57:01;101739.00;;;7.01;65.83
70011;BME280;59543;37.950;-122.338;2023-02-19T08:59:29;101737.06;;;6.90;66.07
70011;BME280;59543;37.950;-122.338;2023-02-19T09:01:57;101738.44;;;6.83;66.29
70011;BME280;59543;37.950;-122.338;2023-02-19T09:04:22;101741.47;;;6.77;66.65
70011;BME280;59543;37.950;-122.338;2023-02-19T09:06:48;101742.56;;;6.74;66.88
70011;BME280;59543;37.950;-122.338;2023-02-19T09:09:14;101735.66;;;6.70;66.82
70011;BME280;59543;37.950;-122.338;2023-02-19T09:11:40;101732.53;;;6.63;66.79
70011;BME280;59543;37.950;-122.338;2023-02-19T09:14:06;101732.09;;;6.57;66.33
70011;BME280;59543;37.950;-122.338;2023-02-19T09:16:33;101733.41;;;6.50;66.15
70011;BME280;59543;37.950;-122.338;2023-02-19T09:18:59;101740.13;;;6.43;66.61
70011;BME280;59543;37.950;-122.338;2023-02-19T09:21:25;101732.94;;;6.43;65.86
70011;BME280;59543;37.950;-122.338;2023-02-19T09:23:51;101724.59;;;6.35;65.15
70011;BME280;59543;37.950;-122.338;2023-02-19T09:26:16;101729.94;;;6.35;64.64
70011;BME280;59543;37.950;-122.338;2023-02-19T09:28:42;101739.19;;;6.29;64.85
70011;BME280;59543;37.950;-122.338;2023-02-19T09:31:12;101741.47;;;6.07;65.00
70011;BME280;59543;37.950;-122.338;2023-02-19T09:33:42;101736.78;;;5.82;65.36
70011;BME280;59543;37.950;-122.338;2023-02-19T09:36:08;101734.63;;;5.58;66.74
70011;BME280;59543;37.950;-122.338;2023-02-19T09:38:34;101740.56;;;5.63;66.52
70011;BME280;59543;37.950;-122.338;2023-02-19T09:41:05;101735.03;;;5.66;66.01
70011;BME280;59543;37.950;-122.338;2023-02-19T09:43:31;101723.78;;;5.61;66.50
70011;BME280;59543;37.950;-122.338;2023-02-19T09:46:21;101722.69;;;5.49;66.65
70011;BME280;59543;37.950;-122.338;2023-02-19T09:48:43;101712.00;;;5.05;68.30
70011;BME280;59543;37.950;-122.338;2023-02-19T09:51:09;101710.56;;;4.99;69.29
70011;BME280;59543;37.950;-122.338;2023-02-19T09:53:38;101714.97;;;4.85;70.02
70011;BME280;59543;37.950;-122.338;2023-02-19T09:56:05;101722.25;;;4.81;69.95
70011;BME280;59543;37.950;-122.338;2023-02-19T09:58:35;101729.88;;;4.73;70.38
70011;BME280;59543;37.950;-122.338;2023-02-19T10:01:05;101745.84;;;4.73;70.45
70011;BME280;59543;37.950;-122.338;2023-02-19T10:03:36;101741.38;;;4.73;71.02
70011;BME280;59543;37.950;-122.338;2023-02-19T10:06:06;101729.59;;;4.77;69.63
70011;BME280;59543;37.950;-122.338;2023-02-19T10:08:36;101714.72;;;4.73;70.41
70011;BME280;59543;37.950;-122.338;2023-02-19T10:11:04;101719.44;;;4.68;70.76
70011;BME280;59543;37.950;-122.338;2023-02-19T10:15:57;101733.63;;;4.85;70.30
70011;BME280;59543;37.950;-122.338;2023-02-19T10:18:24;101723.97;;;4.98;69.22
70011;BME280;59543;37.950;-122.338;2023-02-19T10:20:52;101717.53;;;4.86;69.49
70011;BME280;59543;37.950;-122.338;2023-02-19T10:23:18;101711.06;;;4.90;69.79
70011;BME280;59543;37.950;-122.338;2023-02-19T10:25:46;101708.88;;;4.82;68.88
70011;BME280;59543;37.950;-122.338;2023-02-19T10:28:16;101698.03;;;4.86;69.27
70011;BME280;59543;37.950;-122.338;2023-02-19T10:30:43;101694.38;;;5.02;67.95
70011;BME280;59543;37.950;-122.338;2023-02-19T10:33:10;101687.50;;;4.98;68.23
70011;BME280;59543;37.950;-122.338;2023-02-19T10:35:38;101685.28;;;4.91;68.32
70011;BME280;59543;37.950;-122.338;2023-02-19T10:38:16;101680.16;;;4.88;68.63
70011;BME280;59543;37.950;-122.338;2023-02-19T10:40:43;101676.09;;;4.80;69.25
70011;BME280;59543;37.950;-122.338;2023-02-19T10:43:18;101679.97;;;4.75;68.50
70011;BME280;59543;37.950;-122.338;2023-02-19T10:45:45;101677.91;;;4.80;68.45
70011;BME280;59543;37.950;-122.338;2023-02-19T10:48:31;101681.34;;;4.82;69.17
70011;BME280;59543;37.950;-122.338;2023-02-19T10:51:00;101682.53;;;4.92;68.56
70011;BME280;59543;37.950;-122.338;2023-02-19T10:56:14;101689.53;;;5.09;70.04
70011;BME280;59543;37.950;-122.338;2023-02-19T10:58:41;101682.16;;;5.28;71.14
70011;BME280;59543;37.950;-122.338;2023-02-19T11:01:10;101683.03;;;5.43;69.47
70011;BME280;59543;37.950;-122.338;2023-02-19T11:03:36;101682.44;;;5.38;68.90
70011;BME280;59543;37.950;-122.338;2023-02-19T11:06:02;101683.13;;;5.27;69.29
70011;BME280;59543;37.950;-122.338;2023-02-19T11:08:29;101684.28;;;5.38;70.65
70011;BME280;59543;37.950;-122.338;2023-02-19T11:10:57;101688.59;;;5.55;70.91
70011;BME280;59543;37.950;-122.338;2023-02-19T11:13:30;101687.94;;;5.51;71.67
70011;BME280;59543;37.950;-122.338;2023-02-19T11:15:57;101670.00;;;5.39;72.15
70011;BME280;59543;37.950;-122.338;2023-02-19T11:18:24;101667.41;;;5.37;73.52
70011;BME280;59543;37.950;-122.338;2023-02-19T11:20:58;101663.88;;;5.37;73.56
70011;BME280;59543;37.950;-122.338;2023-02-19T11:23:35;101668.22;;;5.54;72.74
70011;BME280;59543;37.950;-122.338;2023-02-19T11:26:14;101667.81;;;5.45;71.82
70011;BME280;59543;37.950;-122.338;2023-02-19T11:28:41;101669.13;;;5.24;71.33
70011;BME280;59543;37.950;-122.338;2023-02-19T11:31:24;101667.78;;;5.01;71.71
70011;BME280;59543;37.950;-122.338;2023-02-19T11:33:58;101674.94;;;5.00;71.78
70011;BME280;59543;37.950;-122.338;2023-02-19T11:38:57;101667.75;;;4.87;72.51
70011;BME280;59543;37.950;-122.338;2023-02-19T11:46:38;101670.47;;;5.01;69.83
70011;BME280;59543;37.950;-122.338;2023-02-19T11:54:43;101688.31;;;4.85;69.52
70011;BME280;59543;37.950;-122.338;2023-02-19T11:59:43;101685.84;;;4.81;71.37
70011;BME280;59543;37.950;-122.338;2023-02-19T12:04:57;101689.84;;;4.89;71.41
70011;BME280;59543;37.950;-122.338;2023-02-19T12:07:42;101691.19;;;5.12;69.33
70011;BME280;59543;37.950;-122.338;2023-02-19T12:10:25;101691.16;;;4.81;69.70
70011;BME280;59543;37.950;-122.338;2023-02-19T12:25:45;101685.00;;;4.33;71.37
70011;BME280;59543;37.950;-122.338;2023-02-19T12:28:17;101686.34;;;4.09;72.29
70011;BME280;59543;37.950;-122.338;2023-02-19T12:44:08;101699.13;;;4.02;70.44
70011;BME280;59543;37.950;-122.338;2023-02-19T12:46:31;101695.25;;;3.76;70.81
70011;BME280;59543;37.950;-122.338;2023-02-19T12:49:32;101696.63;;;3.83;71.45
70011;BME280;59543;37.950;-122.338;2023-02-19T12:52:33;101694.66;;;3.87;71.38
70011;BME280;59543;37.950;-122.338;2023-02-19T12:54:46;101696.66;;;3.99;70.13
70011;BME280;59543;37.950;-122.338;2023-02-19T12:57:15;101689.25;;;3.88;70.55
70011;BME280;59543;37.950;-122.338;2023-02-19T13:10:02;101695.31;;;3.75;71.66
70011;BME280;59543;37.950;-122.338;2023-02-19T13:12:31;101701.91;;;3.67;71.71
70011;BME280;59543;37.950;-122.338;2023-02-19T13:15:00;101696.91;;;3.61;72.54
70011;BME280;59543;37.950;-122.338;2023-02-19T13:19:58;101702.72;;;3.52;72.45
70011;BME280;59543;37.950;-122.338;2023-02-19T13:22:41;101699.00;;;3.55;73.00
70011;BME280;59543;37.950;-122.338;2023-02-19T13:28:18;101704.50;;;3.52;72.28
70011;BME280;59543;37.950;-122.338;2023-02-19T13:36:20;101708.97;;;3.34;73.27
70011;BME280;59543;37.950;-122.338;2023-02-19T13:38:48;101712.34;;;3.37;73.11
70011;BME280;59543;37.950;-122.338;2023-02-19T13:43:54;101713.75;;;3.44;72.65
70011;BME280;59543;37.950;-122.338;2023-02-19T13:46:20;101716.63;;;3.40;73.06
70011;BME280;59543;37.950;-122.338;2023-02-19T13:48:46;101711.41;;;3.38;73.06
70011;BME280;59543;37.950;-122.338;2023-02-19T14:04:21;101732.59;;;3.23;73.12
70011;BME280;59543;37.950;-122.338;2023-02-19T14:14:46;101731.25;;;3.14;73.46
70011;BME280;59543;37.950;-122.338;2023-02-19T14:17:36;101732.19;;;3.13;74.19
70011;BME280;59543;37.950;-122.338;2023-02-19T14:22:47;101744.75;;;3.09;73.51
70011;BME280;59543;37.950;-122.338;2023-02-19T14:30:55;101743.28;;;3.04;73.30
70011;BME280;59543;37.950;-122.338;2023-02-19T14:33:25;101734.69;;;2.98;73.72
70011;BME280;59543;37.950;-122.338;2023-02-19T14:35:52;101742.00;;;2.93;73.76
70011;BME280;59543;37.950;-122.338;2023-02-19T14:39:05;101737.84;;;2.88;74.22
70011;BME280;59543;37.950;-122.338;2023-02-19T14:41:05;101741.72;;;3.00;73.59
70011;BME280;59543;37.950;-122.338;2023-02-19T14:43:31;101735.00;;;2.92;73.07
70011;BME280;59543;37.950;-122.338;2023-02-19T14:46:42;101742.47;;;2.84;73.07
70011;BME280;59543;37.950;-122.338;2023-02-19T14:48:48;101741.97;;;2.76;73.88
70011;BME280;59543;37.950;-122.338;2023-02-19T14:51:18;101736.09;;;2.69;74.73
70011;BME280;59543;37.950;-122.338;2023-02-19T14:53:47;101739.34;;;2.57;75.27
70011;BME280;59543;37.950;-122.338;2023-02-19T14:56:20;101739.91;;;2.64;75.17